Time;durP1;ratioP1;P1;durP2;ratioP2;P2;SDS_P1;SDS_P2;PMS_P1;PMS_P2;Temp;Humidity;BMP_temperature;BMP_pressure;BME280_temperature;BME280_humidity;BME280_pressure;Samples;Min_cycle;Max_cycle;Signal;HPM_P1;HPM_P2
2023/07/22 00:00:11;;;;;;;17.77;11.60;;;;;;;14.16;66.51;100813.56;683124;28;1255;-78
2023/07/22 00:00:31;;;;;;;16.40;11.70;;;;;;;14.19;66.41;100821.47;687759;28;1461;-78
2023/07/22 00:00:53;;;;;;;15.73;11.38;;;;;;;14.16;66.72;100810.94;685169;28;1341;-78
2023/07/22 00:01:13;;;;;;;16.08;11.35;;;;;;;14.24;66.46;100819.81;682492;29;1234;-78
2023/07/22 00:01:34;;;;;;;16.30;11.18;;;;;;;14.23;66.36;100820.66;679931;28;1076;-78
2023/07/22 00:01:55;;;;;;;15.52;11.45;;;;;;;14.25;66.49;100816.31;688080;28;1311;-78
2023/07/22 00:02:15;;;;;;;15.23;11.30;;;;;;;14.28;66.45;100820.72;687303;28;1258;-78
2023/07/22 00:02:36;;;;;;;15.77;11.38;;;;;;;14.27;66.58;100815.44;679960;29;1171;-78
2023/07/22 00:02:57;;;;;;;17.55;11.52;;;;;;;14.34;66.18;100822.53;687842;28;1310;-78
2023/07/22 00:03:18;;;;;;;17.15;11.40;;;;;;;14.29;66.33;100811.09;687912;28;1268;-78
2023/07/22 00:03:38;;;;;;;18.17;11.23;;;;;;;14.30;66.41;100816.38;687949;28;1353;-78
2023/07/22 00:03:59;;;;;;;17.02;11.40;;;;;;;14.37;66.22;100817.31;685227;28;1180;-78
2023/07/22 00:04:19;;;;;;;17.37;11.30;;;;;;;14.35;66.35;100819.06;690180;28;1083;-78
2023/07/22 00:04:40;;;;;;;17.60;11.90;;;;;;;14.35;65.99;100816.44;690469;28;1216;-80
2023/07/22 00:05:01;;;;;;;17.00;11.57;;;;;;;14.40;66.43;100820.00;685301;28;1194;-78
2023/07/22 00:05:23;;;;;;;16.47;11.80;;;;;;;14.39;66.43;100819.13;687727;28;1216;-78
2023/07/22 00:05:44;;;;;;;15.75;11.52;;;;;;;14.41;66.22;100816.50;687519;28;1792;-79
2023/07/22 00:06:09;;;;;;;17.75;11.70;;;;;;;14.46;66.16;100824.44;679950;28;1216;-78
2023/07/22 00:06:30;;;;;;;18.40;11.70;;;;;;;14.41;66.07;100821.75;682679;29;1046;-78
2023/07/22 00:06:51;;;;;;;17.50;11.48;;;;;;;14.41;66.16;100824.41;687959;28;1115;-78
2023/07/22 00:07:12;;;;;;;16.70;11.40;;;;;;;14.38;65.87;100816.50;685368;28;1280;-78
2023/07/22 00:07:33;;;;;;;16.15;11.20;;;;;;;14.46;65.79;100825.34;680005;28;1361;-78
2023/07/22 00:07:54;;;;;;;15.35;11.55;;;;;;;14.43;65.79;100825.28;677305;29;967;-78
2023/07/22 00:08:14;;;;;;;15.10;11.45;;;;;;;14.42;65.85;100817.38;682504;28;1222;-78
2023/07/22 00:08:37;;;;;;;14.98;11.43;;;;;;;14.47;65.83;100829.72;685015;28;1067;-80
2023/07/22 00:08:57;;;;;;;14.73;11.13;;;;;;;14.37;65.91;100817.31;682752;29;1013;-78
2023/07/22 00:09:18;;;;;;;14.90;11.53;;;;;;;14.43;65.98;100821.78;679927;29;1204;-78
2023/07/22 00:09:38;;;;;;;15.10;12.07;;;;;;;14.42;65.86;100822.63;680981;29;922;-78
2023/07/22 00:10:00;;;;;;;15.52;12.25;;;;;;;14.46;65.83;100829.69;679889;29;1286;-78
2023/07/22 00:10:21;;;;;;;16.15;11.95;;;;;;;14.43;65.83;100825.28;685128;28;1100;-78
2023/07/22 00:10:43;;;;;;;17.33;11.80;;;;;;;14.43;66.09;100829.69;688013;28;1322;-78
2023/07/22 00:11:04;;;;;;;17.42;11.82;;;;;;;14.33;65.81;100812.91;687937;28;1109;-79
2023/07/22 00:11:25;;;;;;;17.95;12.10;;;;;;;14.43;65.89;100833.16;685506;28;1255;-79
2023/07/22 00:11:45;;;;;;;16.83;11.87;;;;;;;14.38;65.85;100821.75;685290;28;1060;-78
2023/07/22 00:12:06;;;;;;;16.23;11.85;;;;;;;14.44;65.69;100834.06;685386;28;1116;-79
2023/07/22 00:12:27;;;;;;;15.90;11.77;;;;;;;14.40;65.94;100822.63;687825;28;1118;-77
2023/07/22 00:12:48;;;;;;;16.40;11.73;;;;;;;14.42;66.03;100834.03;688057;28;1171;-78
2023/07/22 00:13:08;;;;;;;17.27;12.03;;;;;;;14.41;65.89;100837.53;690656;28;969;-78
2023/07/22 00:13:30;;;;;;;16.83;11.77;;;;;;;14.38;66.05;100832.25;682527;28;1280;-78
2023/07/22 00:13:51;;;;;;;17.00;11.75;;;;;;;14.32;65.93;100816.41;685205;28;1395;-78
2023/07/22 00:14:12;;;;;;;16.05;11.50;;;;;;;14.31;65.99;100825.16;682672;28;1263;-79
2023/07/22 00:14:33;;;;;;;15.50;11.32;;;;;;;14.28;65.94;100822.47;685758;28;1122;-78
2023/07/22 00:14:54;;;;;;;15.02;11.32;;;;;;;14.25;66.06;100818.94;677425;29;864;-78
2023/07/22 00:15:14;;;;;;;15.57;11.77;;;;;;;14.27;66.29;100829.47;685265;28;1140;-78
2023/07/22 00:15:35;;;;;;;18.13;12.50;;;;;;;14.17;66.45;100810.06;687190;28;905;-78
2023/07/22 00:15:56;;;;;;;19.48;12.38;;;;;;;14.25;66.28;100826.81;682620;29;1002;-78
2023/07/22 00:16:17;;;;;;;18.50;11.77;;;;;;;14.19;66.59;100826.72;679785;28;1920;-78
2023/07/22 00:16:38;;;;;;;20.13;11.27;;;;;;;14.22;66.43;100820.63;686252;28;998;-77
2023/07/22 00:16:58;;;;;;;20.33;11.45;;;;;;;14.18;66.62;100824.06;687867;28;1190;-78
2023/07/22 00:17:20;;;;;;;20.17;11.23;;;;;;;14.15;66.59;100819.69;687883;28;1051;-78
2023/07/22 00:17:41;;;;;;;17.40;11.45;;;;;;;14.11;66.73;100812.59;687996;28;1052;-78
2023/07/22 00:18:02;;;;;;;17.30;11.43;;;;;;;14.18;66.76;100827.59;685201;28;1054;-78
2023/07/22 00:18:23;;;;;;;18.00;11.87;;;;;;;14.09;66.89;100815.16;684945;28;1277;-78
2023/07/22 00:18:44;;;;;;;17.15;11.63;;;;;;;14.10;66.86;100821.31;682624;28;1000;-78
2023/07/22 00:19:07;;;;;;;14.77;11.00;;;;;;;14.05;66.73;100812.47;685325;28;1133;-78
2023/07/22 00:19:27;;;;;;;15.30;10.70;;;;;;;14.06;66.96;100814.25;687282;28;1276;-78
2023/07/22 00:19:48;;;;;;;14.48;10.55;;;;;;;14.07;67.09;100819.53;685110;28;1130;-77
2023/07/22 00:20:10;;;;;;;15.93;10.87;;;;;;;14.05;67.08;100822.97;682568;28;1092;-78
2023/07/22 00:20:31;;;;;;;14.52;11.27;;;;;;;14.01;67.05;100814.19;677147;29;1537;-78
2023/07/22 00:20:52;;;;;;;15.30;11.13;;;;;;;13.98;67.12;100819.41;679551;29;1119;-78
2023/07/22 00:21:12;;;;;;;18.77;11.33;;;;;;;13.98;67.44;100801.94;679945;29;1108;-78
2023/07/22 00:21:34;;;;;;;19.40;11.20;;;;;;;13.99;67.22;100813.28;677357;29;1182;-78
2023/07/22 00:21:55;;;;;;;19.23;11.25;;;;;;;14.04;67.11;100821.22;677417;29;1135;-78
2023/07/22 00:22:15;;;;;;;16.48;11.45;;;;;;;13.99;67.50;100818.53;677464;29;1051;-78
2023/07/22 00:22:37;;;;;;;16.98;11.63;;;;;;;14.00;67.37;100824.69;677297;29;1017;-78
2023/07/22 00:22:59;;;;;;;17.80;11.52;;;;;;;13.98;67.30;100814.16;678232;29;1118;-78
2023/07/22 00:23:22;;;;;;;17.02;11.73;;;;;;;14.00;67.42;100811.56;680455;28;1223;-78
2023/07/22 00:23:43;;;;;;;17.08;11.85;;;;;;;14.06;67.62;100830.88;688146;28;830;-78
2023/07/22 00:24:04;;;;;;;16.48;11.85;;;;;;;14.01;67.52;100810.69;687879;28;1178;-78
2023/07/22 00:24:25;;;;;;;17.20;11.57;;;;;;;14.04;67.39;100816.88;686325;28;1116;-77
2023/07/22 00:24:46;;;;;;;18.40;11.80;;;;;;;14.03;67.58;100814.22;687926;28;1039;-78
2023/07/22 00:25:10;;;;;;;17.63;11.55;;;;;;;14.07;67.54;100821.28;688055;28;1007;-78
2023/07/22 00:25:30;;;;;;;14.57;10.90;;;;;;;14.01;67.51;100822.06;689423;28;1446;-78
2023/07/22 00:25:51;;;;;;;15.83;11.27;;;;;;;14.03;67.59;100808.97;681836;28;1146;-78
2023/07/22 00:26:12;;;;;;;16.00;11.75;;;;;;;14.03;67.45;100804.63;685597;28;1369;-77
2023/07/22 00:26:33;;;;;;;16.13;11.80;;;;;;;14.06;67.56;100814.25;682538;29;924;-78
2023/07/22 00:26:54;;;;;;;15.43;11.18;;;;;;;14.05;67.34;100802.00;687913;28;1074;-78
2023/07/22 00:27:14;;;;;;;16.30;11.10;;;;;;;14.09;67.32;100816.94;690595;28;1183;-78
2023/07/22 00:27:36;;;;;;;16.08;11.20;;;;;;;14.10;67.36;100818.69;685240;28;1197;-78
2023/07/22 00:27:57;;;;;;;16.40;11.57;;;;;;;14.09;67.21;100809.06;682621;28;1128;-78
2023/07/22 00:28:18;;;;;;;17.10;11.98;;;;;;;14.11;67.21;100815.22;679893;29;1011;-78
2023/07/22 00:28:39;;;;;;;18.00;11.77;;;;;;;14.15;67.31;100814.44;685257;28;1000;-78
2023/07/22 00:28:59;;;;;;;17.07;11.07;;;;;;;14.16;67.03;100813.56;685738;28;1148;-79
2023/07/22 00:29:20;;;;;;;17.80;10.88;;;;;;;14.16;67.21;100824.06;685874;28;1233;-78
2023/07/22 00:29:41;;;;;;;18.17;11.20;;;;;;;14.13;67.12;100816.13;688563;28;1080;-78
2023/07/22 00:30:01;;;;;;;18.83;11.37;;;;;;;14.17;67.04;100817.94;685474;28;1297;-78
2023/07/22 00:30:22;;;;;;;17.75;11.00;;;;;;;14.18;67.13;100810.94;689558;28;1190;-78
2023/07/22 00:30:43;;;;;;;17.95;11.35;;;;;;;14.16;67.11;100805.69;685840;28;1269;-79
2023/07/22 00:31:04;;;;;;;17.17;11.60;;;;;;;14.21;67.23;100811.88;685234;28;1379;-78
2023/07/22 00:31:24;;;;;;;18.65;12.30;;;;;;;14.22;66.82;100811.03;685085;28;1108;-78
2023/07/22 00:31:45;;;;;;;18.60;12.00;;;;;;;14.27;67.18;100815.44;685412;28;1271;-78
2023/07/22 00:32:08;;;;;;;19.55;11.60;;;;;;;14.17;67.25;100796.97;685337;28;1275;-78
2023/07/22 00:32:29;;;;;;;17.40;10.95;;;;;;;14.23;66.94;100809.28;687883;28;937;-78
2023/07/22 00:32:50;;;;;;;16.13;10.82;;;;;;;14.27;67.10;100812.81;685199;28;1039;-78
2023/07/22 00:33:11;;;;;;;15.88;11.50;;;;;;;14.28;66.96;100804.09;682510;29;1100;-78
2023/07/22 00:33:31;;;;;;;15.90;11.80;;;;;;;14.23;66.68;100804.91;687924;28;932;-78
2023/07/22 00:33:52;;;;;;;15.20;11.37;;;;;;;14.29;66.91;100814.63;684446;28;1244;-78
2023/07/22 00:34:13;;;;;;;15.25;10.85;;;;;;;14.30;66.72;100812.84;684692;28;1063;-77
2023/07/22 00:34:34;;;;;;;14.90;10.50;;;;;;;14.27;66.76;100804.94;682403;28;1198;-77
2023/07/22 00:34:54;;;;;;;15.80;11.35;;;;;;;14.23;66.64;100790.91;687301;28;1187;-78
2023/07/22 00:35:15;;;;;;;15.90;11.83;;;;;;;14.32;66.70;100812.00;687713;28;1149;-78
2023/07/22 00:35:36;;;;;;;16.00;12.15;;;;;;;14.29;66.50;100800.59;684461;28;1338;-78
2023/07/22 00:35:57;;;;;;;17.40;11.77;;;;;;;14.36;66.83;100815.56;685137;28;901;-78
2023/07/22 00:36:17;;;;;;;17.80;11.43;;;;;;;14.32;66.70;100805.91;682595;29;1887;-78
2023/07/22 00:36:38;;;;;;;18.65;11.63;;;;;;;14.33;66.47;100807.66;685048;28;1163;-77
2023/07/22 00:36:58;;;;;;;19.00;11.80;;;;;;;14.29;66.81;100796.25;685020;28;1336;-78
2023/07/22 00:37:19;;;;;;;18.83;11.80;;;;;;;14.32;66.71;100808.53;685074;28;1142;-78
2023/07/22 00:37:40;;;;;;;19.67;11.88;;;;;;;14.33;66.57;100807.66;690642;28;956;-77
2023/07/22 00:38:01;;;;;;;17.92;11.88;;;;;;;14.38;66.41;100819.13;687839;28;1364;-78
2023/07/22 00:38:22;;;;;;;17.05;11.95;;;;;;;14.31;66.28;100805.00;682621;28;1358;-78
2023/07/22 00:38:43;;;;;;;16.05;11.70;;;;;;;14.32;66.40;100805.91;680705;28;1388;-78
2023/07/22 00:39:05;;;;;;;14.85;11.10;;;;;;;14.36;66.42;100807.69;682602;29;1041;-78
2023/07/22 00:39:26;;;;;;;14.90;11.10;;;;;;;14.34;66.34;100804.16;682241;29;1015;-79
2023/07/22 00:39:46;;;;;;;16.17;11.27;;;;;;;14.35;66.38;100811.19;682552;28;1290;-78
2023/07/22 00:40:11;;;;;;;17.00;11.47;;;;;;;14.34;66.46;100805.06;687754;28;1408;-78
2023/07/22 00:40:32;;;;;;;16.25;11.15;;;;;;;14.33;66.21;100805.03;682399;28;1501;-78
2023/07/22 00:40:53;;;;;;;15.93;11.20;;;;;;;14.35;66.56;100812.06;685164;28;1181;-78
2023/07/22 00:41:14;;;;;;;17.52;11.82;;;;;;;14.31;66.53;100797.13;687922;28;1017;-78
2023/07/22 00:41:35;;;;;;;19.00;11.95;;;;;;;14.36;66.25;100805.97;685032;28;1252;-78
2023/07/22 00:41:55;;;;;;;18.52;11.65;;;;;;;14.33;66.46;100799.78;682551;29;1132;-78
2023/07/22 00:42:17;;;;;;;17.73;11.30;;;;;;;14.35;66.34;100803.31;685065;28;1005;-78
2023/07/22 00:42:38;;;;;;;19.05;11.30;;;;;;;14.42;66.09;100820.91;685053;28;1152;-77
2023/07/22 00:42:59;;;;;;;18.02;11.20;;;;;;;14.36;66.33;100805.06;682548;29;982;-78
2023/07/22 00:43:20;;;;;;;17.38;11.43;;;;;;;14.34;66.26;100801.53;684905;28;1317;-78
2023/07/22 00:43:41;;;;;;;15.17;11.53;;;;;;;14.37;66.24;100798.94;682560;29;1041;-78
2023/07/22 00:44:02;;;;;;;16.52;12.10;;;;;;;14.39;66.05;100807.75;682612;29;1151;-78
2023/07/22 00:44:22;;;;;;;18.35;12.55;;;;;;;14.38;66.23;100800.75;679583;29;1257;-79
2023/07/22 00:44:43;;;;;;;18.30;12.10;;;;;;;14.35;66.09;100798.06;685411;28;1196;-78
2023/07/22 00:45:05;;;;;;;17.27;12.00;;;;;;;14.37;66.23;100799.84;685041;28;1044;-78
2023/07/22 00:45:26;;;;;;;17.25;11.65;;;;;;;14.44;66.33;100806.03;687658;28;993;-78
2023/07/22 00:45:46;;;;;;;19.23;12.43;;;;;;;14.36;66.18;100794.56;684749;28;1315;-78
2023/07/22 00:46:07;;;;;;;18.27;11.93;;;;;;;14.38;66.36;100795.50;682569;29;1084;-78
2023/07/22 00:46:28;;;;;;;18.10;11.77;;;;;;;14.36;66.14;100791.94;684918;28;1211;-78
2023/07/22 00:46:52;;;;;;;19.30;11.53;;;;;;;14.42;66.18;100799.91;685225;28;1205;-78
2023/07/22 00:47:13;;;;;;;19.38;11.73;;;;;;;14.45;66.17;100806.94;688558;28;1521;-78
2023/07/22 00:47:34;;;;;;;19.17;11.98;;;;;;;14.46;66.29;100811.31;687835;28;1294;-78
2023/07/22 00:47:55;;;;;;;17.15;12.18;;;;;;;14.39;66.23;100797.25;685985;28;1296;-78
2023/07/22 00:48:17;;;;;;;18.60;12.57;;;;;;;14.42;66.06;100802.53;685149;28;1012;-78
2023/07/22 00:48:38;;;;;;;18.05;12.25;;;;;;;14.38;66.38;100795.50;687787;28;1385;-78
2023/07/22 00:48:59;;;;;;;17.52;11.75;;;;;;;14.40;66.28;100793.75;683159;28;1471;-78
2023/07/22 00:49:19;;;;;;;16.43;11.70;;;;;;;14.40;66.31;100799.00;677212;28;1172;-79
2023/07/22 00:49:40;;;;;;;18.92;11.52;;;;;;;14.42;66.08;100799.91;687990;28;1115;-78
2023/07/22 00:50:07;;;;;;;18.05;11.18;;;;;;;14.44;66.09;100807.81;687927;28;960;-78
2023/07/22 00:50:28;;;;;;;19.23;11.20;;;;;;;14.39;66.17;100794.63;685050;28;1019;-78
2023/07/22 00:50:49;;;;;;;16.00;11.23;;;;;;;14.42;66.06;100799.00;685328;28;1079;-78
2023/07/22 00:51:10;;;;;;;16.48;11.70;;;;;;;14.43;66.28;100804.28;685106;28;1484;-78
2023/07/22 00:51:30;;;;;;;16.83;12.02;;;;;;;14.43;66.22;100801.66;685086;28;980;-79
2023/07/22 00:51:51;;;;;;;17.50;12.03;;;;;;;14.41;66.00;100795.50;687762;28;969;-78
2023/07/22 00:52:12;;;;;;;17.65;12.05;;;;;;;14.46;66.33;100803.44;688298;28;1411;-78
2023/07/22 00:52:36;;;;;;;17.20;11.90;;;;;;;14.44;66.06;100799.94;682452;29;1083;-78
2023/07/22 00:52:57;;;;;;;17.13;12.00;;;;;;;14.39;66.25;100797.25;682565;29;957;-79
2023/07/22 00:53:18;;;;;;;17.77;11.50;;;;;;;14.39;66.16;100786.75;682410;28;1209;-78
2023/07/22 00:53:39;;;;;;;20.55;11.82;;;;;;;14.44;65.70;100803.41;682980;28;1197;-79
2023/07/22 00:53:59;;;;;;;21.15;12.20;;;;;;;14.44;65.99;100799.94;687130;28;917;-78
2023/07/22 00:54:20;;;;;;;19.75;12.13;;;;;;;14.45;65.96;100804.31;679631;29;955;-78
2023/07/22 00:54:41;;;;;;;16.77;11.17;;;;;;;14.42;65.88;100791.13;682490;28;1244;-79
2023/07/22 00:55:12;;;;;;;16.30;10.73;;;;;;;14.40;65.86;100793.75;686461;28;1456;-78
2023/07/22 00:55:34;;;;;;;15.50;11.52;;;;;;;14.42;66.21;100796.38;687425;28;995;-80
2023/07/22 00:55:55;;;;;;;16.17;11.93;;;;;;;14.42;66.02;100792.03;685168;28;1234;-78
2023/07/22 00:56:16;;;;;;;16.27;12.00;;;;;;;14.45;66.04;100806.94;685171;28;1975;-79
2023/07/22 00:56:37;;;;;;;16.80;12.20;;;;;;;14.49;66.06;100798.22;679902;29;1225;-78
2023/07/22 00:56:57;;;;;;;16.42;12.32;;;;;;;14.41;66.03;100785.00;685152;28;1404;-78
2023/07/22 00:57:19;;;;;;;18.10;12.18;;;;;;;14.42;66.17;100792.03;682480;28;1294;-78
2023/07/22 00:57:39;;;;;;;18.17;11.95;;;;;;;14.45;65.89;100797.28;682529;28;1133;-79
2023/07/22 00:58:00;;;;;;;18.70;12.27;;;;;;;14.47;65.97;100798.22;682239;29;1420;-79
2023/07/22 00:58:21;;;;;;;17.65;12.68;;;;;;;14.50;66.06;100787.75;682299;28;1193;-79
2023/07/22 00:58:42;;;;;;;18.08;12.45;;;;;;;14.47;66.14;100794.69;682426;28;772;-79
2023/07/22 00:59:03;;;;;;;18.63;12.25;;;;;;;14.43;65.77;100787.66;684728;28;1053;-78
2023/07/22 00:59:27;;;;;;;17.02;11.48;;;;;;;14.44;65.96;100778.94;690239;28;1175;-78
2023/07/22 00:59:47;;;;;;;16.60;11.40;;;;;;;14.43;65.91;100777.16;687820;28;950;-79
2023/07/22 01:00:11;;;;;;;15.80;11.20;;;;;;;14.50;65.69;100785.13;682306;28;1269;-79
2023/07/22 01:00:34;;;;;;;15.52;11.80;;;;;;;14.49;65.52;100783.34;677183;29;1556;-79
2023/07/22 01:00:55;;;;;;;15.38;11.88;;;;;;;14.46;65.65;100772.84;679786;29;919;-80
2023/07/22 01:01:16;;;;;;;16.08;12.18;;;;;;;14.49;65.72;100775.47;679870;29;1093;-79
2023/07/22 01:01:37;;;;;;;16.10;12.02;;;;;;;14.46;65.51;100772.84;684217;28;1245;-79
2023/07/22 01:01:57;;;;;;;16.08;11.85;;;;;;;14.51;65.50;100781.63;687901;28;991;-79
2023/07/22 01:02:19;;;;;;;16.38;12.02;;;;;;;14.47;65.19;100768.44;685295;28;1376;-79
2023/07/22 01:02:41;;;;;;;17.52;12.52;;;;;;;14.49;65.46;100777.22;682639;28;1139;-78
2023/07/22 01:03:01;;;;;;;18.15;12.85;;;;;;;14.55;65.27;100784.31;684959;28;1129;-79
2023/07/22 01:03:22;;;;;;;18.65;12.40;;;;;;;14.49;65.48;100774.59;674417;28;1190;-78
2023/07/22 01:03:43;;;;;;;18.53;12.07;;;;;;;14.54;65.00;100778.16;679937;29;1095;-79
2023/07/22 01:04:04;;;;;;;19.27;11.65;;;;;;;14.53;65.36;100785.13;684756;28;1224;-78
2023/07/22 01:04:25;;;;;;;16.70;11.43;;;;;;;14.53;65.10;100782.50;690275;28;1293;-78
2023/07/22 01:04:46;;;;;;;17.13;11.67;;;;;;;14.56;65.14;100788.69;679961;29;1224;-78
2023/07/22 01:05:10;;;;;;;16.30;12.05;;;;;;;14.52;65.10;100778.13;677261;29;1199;-78
2023/07/22 01:05:31;;;;;;;18.00;12.40;;;;;;;14.57;65.02;100785.19;681632;29;1277;-78
2023/07/22 01:05:54;;;;;;;17.05;12.18;;;;;;;14.57;65.05;100790.44;684679;28;998;-78
2023/07/22 01:06:17;;;;;;;17.25;11.73;;;;;;;14.55;65.08;100777.28;680654;28;1472;-79
2023/07/22 01:06:38;;;;;;;16.17;11.23;;;;;;;14.49;65.23;100767.59;682430;28;1036;-78
2023/07/22 01:07:01;;;;;;;15.38;11.40;;;;;;;14.55;65.13;100776.44;685255;28;961;-78
2023/07/22 01:07:21;;;;;;;15.20;11.30;;;;;;;14.58;65.07;100785.22;682367;29;1053;-78
2023/07/22 01:07:42;;;;;;;16.63;12.00;;;;;;;14.57;65.15;100779.94;685227;28;808;-78
2023/07/22 01:08:03;;;;;;;18.75;12.13;;;;;;;14.54;65.18;100775.53;687764;28;1177;-79
2023/07/22 01:08:24;;;;;;;19.65;12.43;;;;;;;14.53;65.11;100772.00;685002;28;1186;-78
2023/07/22 01:08:46;;;;;;;18.23;11.85;;;;;;;14.58;65.22;100781.69;682565;29;1068;-78
2023/07/22 01:09:07;;;;;;;16.52;11.70;;;;;;;14.61;64.93;100785.25;679777;28;1253;-79
2023/07/22 01:09:34;;;;;;;16.80;11.68;;;;;;;14.62;64.89;100788.78;685392;28;1665;-79
2023/07/22 01:09:58;;;;;;;17.42;12.30;;;;;;;14.55;65.04;100773.81;679713;28;1476;-79
2023/07/22 01:10:19;;;;;;;15.68;11.68;;;;;;;14.62;65.10;100783.50;682458;29;1221;-78
2023/07/22 01:10:40;;;;;;;15.98;11.85;;;;;;;14.62;65.25;100784.38;682925;28;1381;-80
2023/07/22 01:11:01;;;;;;;16.05;11.88;;;;;;;14.63;65.07;100780.88;687876;28;926;-78
2023/07/22 01:11:22;;;;;;;15.90;12.37;;;;;;;14.62;64.96;100775.63;687613;28;1044;-80
2023/07/22 01:11:42;;;;;;;16.60;12.25;;;;;;;14.60;65.16;100777.34;687357;28;849;-78
2023/07/22 01:12:05;;;;;;;16.88;11.75;;;;;;;14.63;64.78;100780.03;684969;28;1554;-79
2023/07/22 01:12:26;;;;;;;16.10;11.30;;;;;;;14.61;65.20;100776.47;682273;28;1245;-79
2023/07/22 01:12:47;;;;;;;16.42;11.60;;;;;;;14.65;64.97;100773.03;687695;28;1309;-78
2023/07/22 01:13:08;;;;;;;16.20;11.80;;;;;;;14.59;64.92;100776.47;685117;28;1159;-79
2023/07/22 01:13:28;;;;;;;17.63;12.35;;;;;;;14.60;64.56;100778.22;682477;28;1531;-79
2023/07/22 01:13:49;;;;;;;19.35;12.57;;;;;;;14.58;64.95;100768.56;685144;28;1273;-79
2023/07/22 01:14:10;;;;;;;19.75;12.70;;;;;;;14.64;64.99;100776.53;687703;28;1164;-79
2023/07/22 01:14:30;;;;;;;19.10;12.40;;;;;;;14.59;64.82;100770.31;685143;28;1039;-78
2023/07/22 01:14:51;;;;;;;17.03;12.20;;;;;;;14.59;64.75;100767.69;685145;28;871;-79
2023/07/22 01:15:12;;;;;;;16.27;11.95;;;;;;;14.65;65.31;100779.16;679794;29;1049;-78
2023/07/22 01:15:33;;;;;;;17.33;12.45;;;;;;;14.59;64.91;100775.59;682125;28;1090;-79
2023/07/22 01:15:54;;;;;;;16.77;11.95;;;;;;;14.59;64.89;100767.69;685021;28;1207;-79
2023/07/22 01:16:15;;;;;;;16.73;12.40;;;;;;;14.61;64.92;100777.38;682174;28;1916;-79
2023/07/22 01:16:36;;;;;;;16.17;11.68;;;;;;;14.66;64.92;100790.56;682464;28;1029;-78
2023/07/22 01:16:56;;;;;;;16.60;12.07;;;;;;;14.61;64.64;100771.22;682364;29;952;-79
2023/07/22 01:17:18;;;;;;;15.90;11.77;;;;;;;14.64;65.06;100779.16;687882;28;1266;-79
2023/07/22 01:17:39;;;;;;;14.77;11.98;;;;;;;14.59;64.87;100773.84;684833;28;1159;-79
2023/07/22 01:18:02;;;;;;;15.48;11.70;;;;;;;14.64;64.99;100787.03;682021;29;1232;-78
2023/07/22 01:18:23;;;;;;;17.55;11.68;;;;;;;14.64;64.84;100781.78;682174;29;1105;-79
2023/07/22 01:18:44;;;;;;;19.30;12.20;;;;;;;14.61;65.19;100779.09;682639;28;1269;-79
2023/07/22 01:19:05;;;;;;;19.20;12.70;;;;;;;14.61;64.91;100771.22;687792;28;1167;-78
2023/07/22 01:19:27;;;;;;;17.00;12.60;;;;;;;14.61;64.97;100774.75;685734;28;1499;-78
2023/07/22 01:19:48;;;;;;;18.75;12.60;;;;;;;14.65;64.86;100780.91;687799;28;1177;-78
2023/07/22 01:20:09;;;;;;;18.98;12.30;;;;;;;14.64;64.89;100777.38;685451;28;1143;-78
2023/07/22 01:20:30;;;;;;;18.65;11.90;;;;;;;14.64;65.06;100777.38;685070;28;1389;-78
2023/07/22 01:20:51;;;;;;;16.48;11.68;;;;;;;14.64;65.09;100773.91;682453;29;1147;-78
2023/07/22 01:21:13;;;;;;;16.25;11.50;;;;;;;14.60;65.08;100764.22;679752;29;1274;-78
2023/07/22 01:21:34;;;;;;;16.13;11.35;;;;;;;14.67;64.86;100781.81;685167;28;946;-78
2023/07/22 01:21:56;;;;;;;16.75;11.50;;;;;;;14.61;64.91;100771.22;690420;28;1340;-78
2023/07/22 01:22:17;;;;;;;18.13;11.98;;;;;;;14.64;65.01;100771.28;685828;28;1250;-78
2023/07/22 01:22:38;;;;;;;16.98;11.65;;;;;;;14.57;65.01;100765.06;685012;28;1211;-77
2023/07/22 01:23:00;;;;;;;16.80;11.35;;;;;;;14.62;64.93;100773.00;688303;28;1520;-77
2023/07/22 01:23:20;;;;;;;17.13;11.25;;;;;;;14.62;65.19;100775.63;682271;29;1053;-78
2023/07/22 01:23:42;;;;;;;17.67;11.67;;;;;;;14.64;64.81;100771.28;684454;28;1295;-78
2023/07/22 01:24:04;;;;;;;18.10;11.85;;;;;;;14.58;64.82;100765.94;684918;28;1302;-78
2023/07/22 01:24:25;;;;;;;17.08;11.98;;;;;;;14.65;65.25;100783.53;687037;28;1247;-78
2023/07/22 01:24:46;;;;;;;18.88;12.80;;;;;;;14.62;65.05;100778.25;687818;28;1200;-78
2023/07/22 01:25:07;;;;;;;20.65;12.80;;;;;;;14.55;64.94;100760.66;685163;28;1024;-78
2023/07/22 01:25:28;;;;;;;20.30;12.50;;;;;;;14.62;65.11;100771.25;686831;28;1268;-78
2023/07/22 01:26:07;;;;;;;18.73;11.45;;;;;;;14.56;65.13;100763.28;681966;29;787;-78
2023/07/22 01:26:27;;;;;;;16.98;11.90;;;;;;;14.55;65.07;100769.41;682417;28;985;-78
2023/07/22 01:26:48;;;;;;;19.67;12.77;;;;;;;14.58;64.90;100772.09;687714;28;1222;-78
2023/07/22 01:27:10;;;;;;;18.17;12.35;;;;;;;14.54;65.01;100765.03;687650;28;1231;-78
2023/07/22 01:27:30;;;;;;;19.70;12.32;;;;;;;14.56;65.00;100768.53;682243;29;1252;-78
2023/07/22 01:27:51;;;;;;;18.33;12.10;;;;;;;14.60;65.22;100772.09;682365;28;1139;-78
2023/07/22 01:28:12;;;;;;;19.13;12.53;;;;;;;14.58;65.10;100768.56;684811;28;1190;-78
2023/07/22 01:28:35;;;;;;;17.10;12.03;;;;;;;14.60;65.27;100775.59;685082;28;942;-78
2023/07/22 01:29:05;;;;;;;16.35;11.32;;;;;;;14.59;65.15;100770.31;682461;29;1076;-78
2023/07/22 01:29:26;;;;;;;16.05;11.18;;;;;;;14.51;65.14;100760.63;682074;28;1064;-78
2023/07/22 01:29:51;;;;;;;16.20;11.13;;;;;;;14.55;65.48;100766.78;688019;28;1198;-78
2023/07/22 01:30:12;;;;;;;16.52;11.77;;;;;;;14.52;65.12;100772.88;690624;28;1052;-78
2023/07/22 01:30:32;;;;;;;18.13;12.30;;;;;;;14.49;65.13;100762.34;682303;28;1208;-78
2023/07/22 01:30:54;;;;;;;18.88;12.40;;;;;;;14.46;65.32;100762.34;680177;28;1186;-78
2023/07/22 01:31:14;;;;;;;18.58;12.20;;;;;;;14.55;65.33;100773.81;682350;28;1034;-78
2023/07/22 01:31:38;;;;;;;18.25;12.55;;;;;;;14.53;65.27;100777.25;682492;29;1005;-78
2023/07/22 01:31:59;;;;;;;18.98;12.70;;;;;;;14.55;65.29;100773.81;685247;28;1240;-78
2023/07/22 01:32:22;;;;;;;19.67;12.75;;;;;;;14.56;65.23;100776.44;687654;28;1378;-79
2023/07/22 01:32:44;;;;;;;17.85;12.07;;;;;;;14.51;65.40;100768.50;682367;28;1389;-78
2023/07/22 01:33:04;;;;;;;15.53;11.20;;;;;;;14.49;65.02;100772.84;679887;29;1033;-78
2023/07/22 01:33:27;;;;;;;14.98;11.27;;;;;;;14.51;65.41;100776.38;682069;28;1200;-78
2023/07/22 01:33:52;;;;;;;16.33;11.93;;;;;;;14.50;65.00;100768.50;682453;28;863;-77
2023/07/22 01:34:12;;;;;;;17.98;12.00;;;;;;;14.44;65.28;100757.91;679880;28;1170;-78
2023/07/22 01:34:33;;;;;;;18.80;11.93;;;;;;;14.45;65.28;100765.78;679940;28;1097;-77
2023/07/22 01:34:54;;;;;;;18.75;11.48;;;;;;;14.42;65.10;100760.50;685001;28;1412;-78
2023/07/22 01:35:14;;;;;;;19.00;11.90;;;;;;;14.53;65.17;100779.03;682373;28;1530;-78
2023/07/22 01:35:35;;;;;;;18.67;12.37;;;;;;;14.51;65.57;100781.63;676499;29;1213;-78
2023/07/22 01:35:56;;;;;;;16.50;12.32;;;;;;;14.44;65.31;100774.53;677039;29;1388;-78
2023/07/22 01:36:17;;;;;;;17.05;12.25;;;;;;;14.41;65.42;100764.00;682270;29;1917;-78
2023/07/22 01:36:38;;;;;;;19.02;12.00;;;;;;;14.38;65.34;100761.34;685158;28;1168;-78
2023/07/22 01:36:59;;;;;;;17.77;11.48;;;;;;;14.41;65.39;100766.63;682382;28;1164;-78
2023/07/22 01:37:20;;;;;;;17.00;11.13;;;;;;;14.42;65.65;100770.13;684462;28;1338;-77
2023/07/22 01:37:40;;;;;;;16.23;11.67;;;;;;;14.39;65.45;100771.00;685185;28;978;-78
2023/07/22 01:38:01;;;;;;;16.92;11.70;;;;;;;14.40;65.54;100767.50;682236;28;1303;-78
2023/07/22 01:38:22;;;;;;;15.57;11.30;;;;;;;14.41;65.71;100766.63;684210;28;1127;-78
2023/07/22 01:38:42;;;;;;;15.60;11.10;;;;;;;14.39;65.55;100768.38;682632;28;1402;-78
2023/07/22 01:39:05;;;;;;;14.73;10.63;;;;;;;14.37;65.69;100767.44;677102;29;1381;-79
2023/07/22 01:39:27;;;;;;;14.82;11.00;;;;;;;14.38;65.63;100774.47;677043;29;1149;-78